Weather at Allen C Perkinson Blackstone Army Air Field

Public forecast

Using degrees Fahrenheit for public forecast. Weather courtesy of forecast.io.

Current aviation weather report (METAR) for Allen C Perkinson Blackstone Army Air Field

Retrieved 2021/01/24 18:35 UTC (0 seconds ago):

KBKT 241835Z AUTO 20004KT 10SM BKN100 04/M11 A3024 RMK AO1 T00401111

Closest aviation forecast (TAF) to Allen C Perkinson Blackstone Army Air Field

Closest forecast is Richmond International Airport, 40.0 nm (74.0 km) NE. Retrieved 2021/01/24 18:22 UTC (4 minutes ago):

TAF KRIC 241720Z 2418/2518 VRB05KT P6SM FEW100 FM242100 VRB03KT P6SM BKN100 FM242300 00000KT P6SM BKN060 FM251700 VRB03KT P6SM OVC045